Los Angeles - LAX

The City of Angels

The Los Angeles International Airport is the largest West Coast hub in the United States and acts as a key connection point for flights coming to and from destinations throughout and across the Pacific Ocean. American Airlines operates enough flights out of this mega hub to make up around 25% of the total passenger share.

LAX Based Pilots: 26   Miles to LAX: 516845
Flights from LAX: 427   Total Hours: 2533.76
Routes using LAX: 537   From LAX: 1255.25
Total Miles: 1041615   Hours To LAX: 1278.51
Miles from LAX: 524770   LAX Charts: Click Here
VATSIM METAR: KLAX 141346Z 08005KT 6SM BR FEW016 BKN024 OVC034 09/08 A3013 RMK AO2 T00940078 $
 
         
View More: Click Here
   

 

Like what you see and ready to join the team?

A rewarding and memorable virtual airline experience awaits!